createdAt,value
2019-02-21T00:02:19.396Z,10.83
2019-02-21T00:04:47.430Z,11.53
2019-02-21T00:07:16.016Z,11.17
2019-02-21T00:09:44.505Z,11.13
2019-02-21T00:12:12.897Z,12.70
2019-02-21T00:14:41.706Z,11.77
2019-02-21T00:17:10.104Z,12.70
2019-02-21T00:19:39.402Z,12.20
2019-02-21T00:22:10.336Z,12.43
2019-02-21T00:24:40.123Z,11.80
2019-02-21T00:27:10.024Z,12.23
2019-02-21T00:29:39.524Z,13.13
2019-02-21T00:32:08.675Z,13.27
2019-02-21T00:34:37.849Z,13.10
2019-02-21T00:37:06.712Z,12.83
2019-02-21T00:39:35.667Z,12.67
2019-02-21T00:42:03.759Z,12.73
2019-02-21T00:44:37.197Z,12.50
2019-02-21T00:47:06.112Z,12.67
2019-02-21T00:49:35.540Z,12.47
2019-02-21T00:52:05.093Z,13.10
2019-02-21T00:54:34.471Z,13.77
2019-02-21T00:57:04.317Z,14.03
2019-02-21T00:59:34.386Z,13.13
2019-02-21T01:02:03.215Z,12.77
2019-02-21T01:04:32.253Z,13.13
2019-02-21T01:07:01.079Z,12.37
2019-02-21T01:09:29.851Z,13.03
2019-02-21T01:11:58.626Z,12.37
2019-02-21T01:14:27.441Z,11.60
2019-02-21T01:16:56.245Z,12.87
2019-02-21T01:19:25.935Z,12.30
2019-02-21T01:21:54.895Z,12.63
2019-02-21T01:24:24.303Z,12.63
2019-02-21T01:26:52.268Z,12.53
2019-02-21T01:29:20.540Z,12.93
2019-02-21T01:31:49.023Z,12.43
2019-02-21T01:34:18.165Z,11.67
2019-02-21T01:36:46.808Z,12.90
2019-02-21T01:39:15.197Z,12.97
2019-02-21T01:41:44.747Z,13.50
2019-02-21T01:44:12.816Z,13.07
2019-02-21T01:46:41.168Z,13.27
2019-02-21T01:49:09.413Z,13.20
2019-02-21T01:51:37.668Z,13.80
2019-02-21T01:54:06.130Z,12.90
2019-02-21T01:56:34.113Z,13.33
2019-02-21T01:59:02.709Z,13.73
2019-02-21T02:01:31.571Z,12.03
2019-02-21T02:03:59.873Z,12.70
2019-02-21T02:06:28.403Z,15.67
2019-02-21T02:08:57.294Z,13.97
2019-02-21T02:11:26.738Z,14.50
2019-02-21T02:13:56.514Z,13.53
2019-02-21T02:16:27.147Z,13.60
2019-02-21T02:18:56.834Z,13.17
2019-02-21T02:21:25.918Z,12.60
2019-02-21T02:23:55.174Z,14.00
2019-02-21T02:26:24.592Z,13.40
2019-02-21T02:28:53.216Z,13.47
2019-02-21T02:31:23.822Z,13.33
2019-02-21T02:33:53.273Z,13.60
2019-02-21T02:36:23.059Z,14.80
2019-02-21T02:38:53.623Z,14.47
2019-02-21T02:41:22.973Z,14.90
2019-02-21T02:43:52.957Z,17.10
2019-02-21T02:46:22.084Z,16.00
2019-02-21T02:48:52.141Z,16.07
2019-02-21T02:51:21.663Z,15.77
2019-02-21T02:53:50.535Z,15.23
2019-02-21T02:56:20.238Z,15.23
2019-02-21T02:58:48.343Z,15.03
2019-02-21T03:01:16.995Z,14.47
2019-02-21T03:03:46.830Z,15.13
2019-02-21T03:06:16.016Z,16.53
2019-02-21T03:08:44.646Z,15.63
2019-02-21T03:11:13.706Z,15.07
2019-02-21T03:13:42.394Z,15.33
2019-02-21T03:16:11.436Z,20.37
2019-02-21T03:18:41.073Z,20.43
2019-02-21T03:21:09.116Z,19.37
2019-02-21T03:23:37.505Z,17.90
2019-02-21T03:26:05.639Z,17.83
2019-02-21T03:28:34.740Z,17.07
2019-02-21T03:31:03.967Z,17.87
2019-02-21T03:33:33.073Z,17.73
2019-02-21T03:36:02.605Z,16.87
2019-02-21T03:38:35.011Z,16.10
2019-02-21T03:41:02.893Z,15.53
2019-02-21T03:43:31.002Z,15.87
2019-02-21T03:46:01.862Z,16.37
2019-02-21T03:48:31.434Z,16.00
2019-02-21T03:51:00.222Z,15.80
2019-02-21T03:53:28.256Z,15.87
2019-02-21T03:55:56.317Z,15.97
2019-02-21T03:58:24.361Z,18.13
2019-02-21T04:00:52.304Z,21.83
2019-02-21T04:03:21.406Z,33.97
2019-02-21T04:05:49.864Z,23.77
2019-02-21T04:08:18.951Z,25.00
2019-02-21T04:10:48.219Z,18.70
2019-02-21T04:13:16.247Z,17.13
2019-02-21T04:15:44.506Z,16.10
2019-02-21T04:18:13.138Z,16.33
2019-02-21T04:20:41.531Z,17.07
2019-02-21T04:23:09.944Z,18.10
2019-02-21T04:25:38.301Z,18.50
2019-02-21T04:28:06.471Z,18.30
2019-02-21T04:30:35.186Z,18.67
2019-02-21T04:33:04.050Z,19.67
2019-02-21T04:35:32.833Z,21.00
2019-02-21T04:38:01.989Z,19.83
2019-02-21T04:40:30.499Z,26.20
2019-02-21T04:42:59.288Z,28.23
2019-02-21T04:45:27.706Z,26.83
2019-02-21T04:47:56.869Z,25.67
2019-02-21T04:50:25.443Z,26.23
2019-02-21T04:52:53.645Z,28.60
2019-02-21T04:55:22.758Z,24.33
2019-02-21T04:57:51.650Z,21.43
2019-02-21T05:00:19.830Z,20.80
2019-02-21T05:02:47.824Z,18.57
2019-02-21T05:05:16.430Z,20.27
2019-02-21T05:07:47.970Z,21.93
2019-02-21T05:10:16.734Z,19.83
2019-02-21T05:12:45.769Z,18.97
2019-02-21T05:15:16.285Z,20.93
2019-02-21T05:17:44.318Z,23.43
2019-02-21T05:20:12.527Z,20.97
2019-02-21T05:22:40.592Z,21.30
2019-02-21T05:25:08.711Z,29.33
2019-02-21T05:27:41.679Z,31.43
2019-02-21T05:30:13.126Z,29.63
2019-02-21T05:33:04.587Z,26.63
2019-02-21T05:35:54.857Z,20.57
2019-02-21T05:38:46.937Z,17.03
2019-02-21T05:41:34.795Z,15.70
2019-02-21T05:44:11.827Z,16.03
2019-02-21T05:46:59.572Z,17.67
2019-02-21T05:49:53.215Z,17.20
2019-02-21T05:52:41.750Z,16.53
2019-02-21T05:55:32.419Z,16.37
2019-02-21T05:58:12.863Z,15.30
2019-02-21T06:01:13.166Z,14.83
2019-02-21T06:03:48.353Z,14.57
2019-02-21T06:06:35.427Z,16.20
2019-02-21T06:09:14.144Z,14.97
2019-02-21T06:12:04.843Z,16.93
2019-02-21T06:14:44.268Z,14.83
2019-02-21T06:17:31.056Z,15.63
2019-02-21T06:20:18.547Z,15.33
2019-02-21T06:23:06.424Z,15.90
2019-02-21T06:25:50.773Z,17.23
2019-02-21T06:28:35.032Z,15.67
2019-02-21T06:31:07.096Z,14.60
2019-02-21T06:33:35.297Z,15.00
2019-02-21T06:36:04.073Z,15.07
2019-02-21T06:38:33.728Z,14.90
2019-02-21T06:41:02.052Z,14.03
2019-02-21T06:43:30.209Z,14.50
2019-02-21T06:45:58.607Z,15.10
2019-02-21T06:48:26.670Z,15.83
2019-02-21T06:50:56.579Z,15.83
2019-02-21T06:53:24.719Z,15.30
2019-02-21T06:55:53.527Z,16.93
2019-02-21T06:58:21.971Z,15.37
2019-02-21T07:00:50.033Z,15.73
2019-02-21T07:03:18.767Z,16.37
2019-02-21T07:05:47.023Z,16.20
2019-02-21T07:08:16.028Z,15.57
2019-02-21T07:10:44.780Z,17.17
2019-02-21T07:13:12.854Z,16.53
2019-02-21T07:15:41.684Z,15.83
2019-02-21T07:18:11.221Z,15.07
2019-02-21T07:20:40.586Z,15.03
2019-02-21T07:23:11.174Z,16.00
2019-02-21T07:25:43.985Z,14.47
2019-02-21T07:28:15.568Z,14.57
2019-02-21T07:30:44.593Z,14.97
2019-02-21T07:33:14.538Z,14.00
2019-02-21T07:35:43.336Z,13.43
2019-02-21T07:38:11.763Z,11.93
2019-02-21T07:40:39.874Z,12.17
2019-02-21T07:43:08.313Z,12.93
2019-02-21T07:45:36.738Z,11.87
2019-02-21T07:48:04.985Z,12.20
2019-02-21T07:50:34.022Z,11.60
2019-02-21T07:53:03.112Z,12.13
2019-02-21T07:55:31.879Z,11.33
2019-02-21T07:58:00.111Z,12.03
2019-02-21T08:00:28.551Z,12.30
2019-02-21T08:02:59.047Z,11.90
2019-02-21T08:05:27.136Z,13.00
2019-02-21T08:07:55.268Z,13.37
2019-02-21T08:10:33.129Z,12.57
2019-02-21T08:12:53.986Z,13.17
2019-02-21T08:16:12.387Z,13.27
2019-02-21T08:18:40.886Z,12.40
2019-02-21T08:21:10.100Z,12.97
2019-02-21T08:23:49.971Z,13.40
2019-02-21T08:26:10.464Z,13.33
2019-02-21T08:28:38.977Z,13.13
2019-02-21T08:31:07.659Z,13.97
2019-02-21T08:34:04.178Z,13.17
2019-02-21T08:36:34.473Z,13.47
2019-02-21T08:39:04.766Z,12.97
2019-02-21T08:41:33.646Z,13.77
2019-02-21T08:44:01.982Z,13.90
2019-02-21T08:46:30.431Z,13.97
2019-02-21T08:48:58.825Z,13.83
2019-02-21T08:51:28.174Z,13.63
2019-02-21T08:53:57.742Z,14.13
2019-02-21T08:56:26.386Z,14.00
2019-02-21T08:58:55.382Z,14.03
2019-02-21T09:01:24.044Z,14.27
2019-02-21T09:03:52.879Z,14.40
2019-02-21T09:06:24.823Z,15.07
2019-02-21T09:08:53.447Z,14.53
2019-02-21T09:11:22.083Z,14.63
2019-02-21T09:13:50.135Z,14.20
2019-02-21T09:16:19.438Z,14.50
2019-02-21T09:18:51.488Z,14.23
2019-02-21T09:21:20.128Z,14.07
2019-02-21T09:23:49.729Z,14.20
2019-02-21T09:26:18.172Z,13.90
2019-02-21T09:28:46.833Z,14.70
2019-02-21T09:31:15.212Z,14.33
2019-02-21T09:33:44.133Z,16.03
2019-02-21T09:36:12.190Z,15.83
2019-02-21T09:38:41.461Z,15.30
2019-02-21T09:41:09.899Z,17.33
2019-02-21T09:43:39.118Z,15.87
2019-02-21T09:46:07.542Z,16.27
2019-02-21T09:48:36.920Z,16.50
2019-02-21T09:51:05.345Z,15.87
2019-02-21T09:53:34.486Z,16.23
2019-02-21T09:56:03.078Z,16.03
2019-02-21T09:58:38.579Z,16.50
2019-02-21T10:01:07.757Z,16.07
2019-02-21T10:03:37.784Z,15.93
2019-02-21T10:06:08.346Z,15.67
2019-02-21T10:08:39.205Z,16.33
2019-02-21T10:11:07.926Z,15.90
2019-02-21T10:13:36.708Z,15.30
2019-02-21T10:16:06.393Z,16.10
2019-02-21T10:18:36.123Z,16.33
2019-02-21T10:21:04.796Z,16.77
2019-02-21T10:23:34.098Z,16.00
2019-02-21T10:26:02.313Z,16.27
2019-02-21T10:28:32.523Z,15.60
2019-02-21T10:31:01.377Z,15.67
2019-02-21T10:33:29.520Z,16.07
2019-02-21T10:36:00.470Z,16.13
2019-02-21T10:38:28.537Z,17.83
2019-02-21T10:40:57.134Z,18.50
2019-02-21T10:43:26.426Z,19.10
2019-02-21T10:45:55.494Z,18.93
2019-02-21T10:48:24.208Z,17.93
2019-02-21T10:51:31.538Z,16.00
2019-02-21T10:54:00.671Z,15.50
2019-02-21T10:56:29.222Z,15.63
2019-02-21T10:58:57.653Z,15.50
2019-02-21T11:01:26.931Z,15.37
2019-02-21T11:03:55.311Z,15.37
2019-02-21T11:06:23.421Z,15.33
2019-02-21T11:08:52.387Z,15.13
2019-02-21T11:11:20.854Z,15.33
2019-02-21T11:13:52.971Z,13.20
2019-02-21T11:16:35.277Z,13.40
2019-02-21T11:19:04.488Z,13.57
2019-02-21T11:21:32.788Z,13.77
2019-02-21T11:24:01.128Z,13.37
2019-02-21T11:26:29.424Z,14.10
2019-02-21T11:28:58.580Z,13.67
2019-02-21T11:31:27.916Z,15.03
2019-02-21T11:33:56.686Z,13.70
2019-02-21T11:36:26.462Z,14.93
2019-02-21T11:38:54.392Z,13.30
2019-02-21T11:41:22.402Z,13.67
2019-02-21T11:43:50.500Z,13.40
2019-02-21T11:46:18.748Z,13.53
2019-02-21T11:48:46.730Z,12.60
2019-02-21T11:51:16.698Z,13.60
2019-02-21T11:53:45.989Z,12.73
2019-02-21T11:56:15.742Z,12.73
2019-02-21T11:58:44.413Z,13.20
2019-02-21T12:01:12.999Z,13.50
2019-02-21T12:03:41.407Z,13.17
2019-02-21T12:06:10.905Z,13.47
2019-02-21T12:08:39.534Z,13.47
2019-02-21T12:11:08.070Z,13.53
2019-02-21T12:13:36.824Z,12.97
2019-02-21T12:16:05.167Z,13.53
2019-02-21T12:18:35.191Z,13.17
2019-02-21T12:21:04.101Z,13.50
2019-02-21T12:23:32.717Z,14.00
2019-02-21T12:26:01.245Z,14.03
2019-02-21T12:28:30.233Z,13.70
2019-02-21T12:31:00.443Z,13.90
2019-02-21T12:33:28.389Z,13.67
2019-02-21T12:35:59.402Z,12.83
2019-02-21T12:38:29.195Z,13.07
2019-02-21T12:41:02.253Z,13.13
2019-02-21T12:43:29.810Z,13.67
2019-02-21T12:46:00.055Z,13.20
2019-02-21T12:48:28.156Z,13.47
2019-02-21T12:50:59.362Z,14.27
2019-02-21T12:53:28.332Z,13.03
2019-02-21T12:55:58.211Z,13.03
2019-02-21T12:58:27.846Z,14.97
2019-02-21T13:00:57.038Z,17.77
2019-02-21T13:03:26.477Z,18.27
2019-02-21T13:05:55.516Z,17.90
2019-02-21T13:08:24.434Z,18.07
2019-02-21T13:10:53.147Z,15.17
2019-02-21T13:13:21.388Z,15.60
2019-02-21T13:15:50.581Z,15.93
2019-02-21T13:18:19.569Z,17.03
2019-02-21T13:20:48.488Z,14.53
2019-02-21T13:23:17.388Z,15.27
2019-02-21T13:25:45.457Z,15.20
2019-02-21T13:28:14.675Z,16.53
2019-02-21T13:30:43.093Z,15.67
2019-02-21T13:33:11.511Z,14.97
2019-02-21T13:35:39.981Z,15.67
2019-02-21T13:38:08.953Z,13.77
2019-02-21T13:40:37.452Z,14.17
2019-02-21T13:43:06.545Z,13.17
2019-02-21T13:45:34.890Z,12.83
2019-02-21T13:48:03.487Z,12.90
2019-02-21T13:50:32.213Z,12.47
2019-02-21T13:53:02.015Z,12.87
2019-02-21T13:55:29.989Z,11.97
2019-02-21T13:57:58.230Z,11.57
2019-02-21T14:00:26.579Z,11.10
2019-02-21T14:02:55.556Z,11.23
2019-02-21T14:05:24.551Z,11.40
2019-02-21T14:07:52.790Z,10.50
2019-02-21T14:10:21.175Z,10.93
2019-02-21T14:12:49.309Z,10.50
2019-02-21T14:15:20.622Z,10.33
2019-02-21T14:17:49.481Z,10.07
2019-02-21T14:20:18.399Z,9.87
2019-02-21T14:22:47.905Z,10.53
2019-02-21T14:25:16.745Z,10.07
2019-02-21T14:27:45.796Z,9.70
2019-02-21T14:30:15.975Z,10.17
2019-02-21T14:32:45.454Z,9.60
2019-02-21T14:35:14.947Z,9.10
2019-02-21T14:37:43.430Z,8.77
2019-02-21T14:40:14.111Z,9.63
2019-02-21T14:42:42.346Z,9.30
2019-02-21T14:45:13.092Z,9.20
2019-02-21T14:47:42.362Z,9.23
2019-02-21T14:50:12.633Z,9.53
2019-02-21T14:52:41.424Z,9.80
2019-02-21T14:55:11.306Z,10.57
2019-02-21T14:57:41.168Z,10.40
2019-02-21T15:00:15.245Z,9.37
2019-02-21T15:02:44.132Z,9.27
2019-02-21T15:05:12.241Z,10.03
2019-02-21T15:07:41.439Z,9.83
2019-02-21T15:10:12.553Z,9.30
2019-02-21T15:12:40.816Z,9.77
2019-02-21T15:15:10.806Z,9.97
2019-02-21T15:17:39.524Z,9.50
2019-02-21T15:20:10.731Z,10.07
2019-02-21T15:22:39.145Z,9.10
2019-02-21T15:25:09.116Z,9.90
2019-02-21T15:27:38.041Z,10.27
2019-02-21T15:30:11.276Z,10.57
2019-02-21T15:32:39.944Z,10.10
2019-02-21T15:35:08.805Z,10.47
2019-02-21T15:37:37.838Z,10.47
2019-02-21T15:40:08.790Z,11.00
2019-02-21T15:42:37.068Z,10.97
2019-02-21T15:45:09.664Z,10.90
2019-02-21T15:47:37.974Z,11.03
2019-02-21T15:50:08.990Z,11.10
2019-02-21T15:52:37.704Z,11.17
2019-02-21T15:55:12.560Z,11.30
2019-02-21T15:57:39.777Z,10.87
2019-02-21T16:00:11.776Z,10.20
2019-02-21T16:02:40.745Z,10.57
2019-02-21T16:05:09.368Z,10.83
2019-02-21T16:07:39.202Z,10.77
2019-02-21T16:10:10.833Z,10.17
2019-02-21T16:12:39.568Z,10.20
2019-02-21T16:15:10.669Z,19.17
2019-02-21T16:17:40.298Z,16.63
2019-02-21T16:20:10.631Z,18.27
2019-02-21T16:22:39.972Z,15.37
2019-02-21T16:25:11.444Z,11.87
2019-02-21T16:27:40.700Z,14.27
2019-02-21T16:30:10.089Z,11.20
2019-02-21T16:32:39.564Z,13.40
2019-02-21T16:35:08.337Z,11.90
2019-02-21T16:37:37.751Z,15.90
2019-02-21T16:40:09.208Z,18.20
2019-02-21T16:42:39.461Z,16.13
2019-02-21T16:45:09.788Z,12.87
2019-02-21T16:47:38.831Z,12.70
2019-02-21T16:50:08.794Z,11.17
2019-02-21T16:52:37.375Z,12.00
2019-02-21T16:55:08.813Z,11.87
2019-02-21T16:57:37.379Z,12.73
2019-02-21T17:00:07.014Z,15.87
2019-02-21T17:02:35.511Z,16.43
2019-02-21T17:05:04.246Z,13.00
2019-02-21T17:07:32.325Z,13.20
2019-02-21T17:10:00.479Z,13.37
2019-02-21T17:12:28.963Z,12.37
2019-02-21T17:14:57.060Z,12.57
2019-02-21T17:17:25.997Z,13.80
2019-02-21T17:19:55.772Z,15.23
2019-02-21T17:22:24.096Z,16.17
2019-02-21T17:24:53.321Z,16.43
2019-02-21T17:27:22.368Z,15.30
2019-02-21T17:29:50.952Z,16.30
2019-02-21T17:32:19.492Z,16.40
2019-02-21T17:34:48.345Z,15.07
2019-02-21T17:37:24.575Z,15.57
2019-02-21T17:39:47.196Z,15.33
2019-02-21T17:42:16.533Z,13.33
2019-02-21T17:44:46.235Z,16.70
2019-02-21T17:47:14.170Z,14.70
2019-02-21T17:49:43.394Z,15.43
2019-02-21T17:52:12.332Z,15.23
2019-02-21T17:54:40.315Z,15.23
2019-02-21T17:57:09.641Z,15.53
2019-02-21T17:59:38.592Z,15.93
2019-02-21T18:02:07.539Z,15.93
2019-02-21T18:04:35.835Z,15.03
2019-02-21T18:07:04.829Z,15.50
2019-02-21T18:09:33.469Z,15.70
2019-02-21T18:12:01.751Z,16.03
2019-02-21T18:14:29.890Z,16.27
2019-02-21T18:16:58.295Z,16.30
2019-02-21T18:19:26.456Z,15.83
2019-02-21T18:21:55.834Z,16.40
2019-02-21T18:24:24.360Z,17.30
2019-02-21T18:26:55.978Z,16.47
2019-02-21T18:29:24.272Z,17.57
2019-02-21T18:31:58.448Z,17.43
2019-02-21T18:34:26.892Z,16.63
2019-02-21T18:37:00.326Z,17.00
2019-02-21T18:39:37.905Z,15.43
2019-02-21T18:42:08.005Z,17.87
2019-02-21T18:44:36.361Z,17.37
2019-02-21T18:47:05.329Z,17.37
2019-02-21T18:49:33.427Z,18.10
2019-02-21T18:52:02.227Z,17.63
2019-02-21T18:54:31.081Z,17.30
2019-02-21T18:56:59.463Z,16.23
2019-02-21T18:59:31.797Z,16.43
2019-02-21T19:01:57.914Z,16.93
2019-02-21T19:04:27.274Z,17.93
2019-02-21T19:06:55.835Z,16.50
2019-02-21T19:09:24.358Z,17.43
2019-02-21T19:11:53.448Z,17.80
2019-02-21T19:14:21.996Z,17.30
2019-02-21T19:16:50.467Z,17.87
2019-02-21T19:19:19.152Z,17.20
2019-02-21T19:21:54.125Z,18.73
2019-02-21T19:24:23.097Z,16.43
2019-02-21T19:26:52.017Z,17.73
2019-02-21T19:29:20.093Z,17.57
2019-02-21T19:31:48.620Z,17.60
2019-02-21T19:34:17.074Z,18.80
2019-02-21T19:36:45.177Z,22.30
2019-02-21T19:39:14.596Z,20.87
2019-02-21T19:41:43.747Z,19.37
2019-02-21T19:44:11.925Z,18.83
2019-02-21T19:46:40.907Z,18.50
2019-02-21T19:49:08.944Z,18.43
2019-02-21T19:51:36.854Z,20.20
2019-02-21T19:54:05.441Z,18.27
2019-02-21T19:56:33.982Z,18.20
2019-02-21T19:59:04.359Z,17.77
2019-02-21T20:01:33.238Z,18.43
2019-02-21T20:04:02.602Z,17.70
2019-02-21T20:06:32.538Z,17.77
2019-02-21T20:09:01.572Z,18.07
2019-02-21T20:11:30.324Z,17.93
2019-02-21T20:13:58.947Z,17.77
2019-02-21T20:16:28.682Z,15.90
2019-02-21T20:18:56.782Z,21.03
2019-02-21T20:21:25.151Z,17.30
2019-02-21T20:23:53.912Z,14.30
2019-02-21T20:26:22.131Z,13.57
2019-02-21T20:28:50.133Z,13.93
2019-02-21T20:31:19.163Z,14.17
2019-02-21T20:33:47.753Z,13.60
2019-02-21T20:36:18.016Z,14.47
2019-02-21T20:38:46.957Z,14.90
2019-02-21T20:41:16.054Z,14.30
2019-02-21T20:43:44.206Z,14.37
2019-02-21T20:46:12.420Z,15.70
2019-02-21T20:48:40.426Z,14.80
2019-02-21T20:51:09.264Z,15.23
2019-02-21T20:53:38.688Z,15.00
2019-02-21T20:56:08.059Z,14.33
2019-02-21T20:58:37.112Z,13.87
2019-02-21T21:01:07.486Z,13.80
2019-02-21T21:03:36.440Z,14.63
2019-02-21T21:06:05.063Z,13.10
2019-02-21T21:08:42.661Z,13.70
2019-02-21T21:11:05.268Z,13.10
2019-02-21T21:13:34.251Z,13.03
2019-02-21T21:16:02.255Z,13.33
2019-02-21T21:18:31.500Z,13.37
2019-02-21T21:21:00.659Z,13.20
2019-02-21T21:23:29.548Z,13.80
2019-02-21T21:25:57.887Z,12.97
2019-02-21T21:28:25.953Z,13.07
2019-02-21T21:30:55.823Z,12.90
2019-02-21T21:33:24.763Z,12.97
2019-02-21T21:35:53.774Z,12.27
2019-02-21T21:38:24.476Z,12.73
2019-02-21T21:40:53.070Z,11.83
2019-02-21T21:43:21.424Z,12.67
2019-02-21T21:45:50.751Z,11.70
2019-02-21T21:48:19.140Z,12.50
2019-02-21T21:50:47.797Z,14.40
2019-02-21T21:53:16.587Z,13.90
2019-02-21T21:55:45.786Z,12.87
2019-02-21T21:58:14.381Z,12.83
2019-02-21T22:00:43.792Z,12.53
2019-02-21T22:03:13.401Z,12.37
2019-02-21T22:05:42.516Z,13.17
2019-02-21T22:08:11.752Z,12.10
2019-02-21T22:10:41.016Z,12.00
2019-02-21T22:13:09.777Z,12.13
2019-02-21T22:15:39.214Z,12.67
2019-02-21T22:18:08.178Z,11.77
2019-02-21T22:20:37.303Z,12.90
2019-02-21T22:23:05.959Z,13.23
2019-02-21T22:25:37.202Z,12.23
2019-02-21T22:28:05.656Z,12.10
2019-02-21T22:30:35.670Z,12.10
2019-02-21T22:33:04.835Z,12.53
2019-02-21T22:35:33.575Z,12.23
2019-02-21T22:38:02.222Z,12.97
2019-02-21T22:40:30.466Z,13.30
2019-02-21T22:42:58.911Z,13.43
2019-02-21T22:45:27.218Z,12.73
2019-02-21T22:47:55.640Z,12.40
2019-02-21T22:50:26.770Z,13.63
2019-02-21T22:52:54.998Z,12.57
2019-02-21T22:55:24.063Z,12.87
2019-02-21T22:57:52.840Z,12.50
2019-02-21T23:01:19.869Z,13.03
2019-02-21T23:04:26.657Z,13.03
2019-02-21T23:07:18.620Z,14.07
2019-02-21T23:09:46.709Z,20.60
2019-02-21T23:12:17.981Z,16.60
2019-02-21T23:14:47.381Z,21.40
2019-02-21T23:17:15.370Z,15.67
2019-02-21T23:19:43.740Z,13.60
2019-02-21T23:22:11.850Z,14.07
2019-02-21T23:24:40.787Z,14.23
2019-02-21T23:27:09.873Z,14.17
2019-02-21T23:29:38.261Z,14.70
2019-02-21T23:32:07.743Z,13.90
2019-02-21T23:34:40.522Z,14.70
2019-02-21T23:37:09.083Z,13.80
2019-02-21T23:39:38.784Z,15.43
2019-02-21T23:42:06.824Z,14.50
2019-02-21T23:44:35.875Z,14.33
2019-02-21T23:47:04.176Z,14.47
2019-02-21T23:49:32.324Z,14.63
2019-02-21T23:52:00.819Z,14.60
2019-02-21T23:54:28.853Z,15.47
2019-02-21T23:56:56.903Z,15.63
2019-02-21T23:59:25.076Z,15.13
